createdAt,value
2018-02-17T00:01:38.726Z,4.67
2018-02-17T00:04:07.506Z,5.30
2018-02-17T00:06:35.795Z,4.90
2018-02-17T00:09:04.072Z,4.80
2018-02-17T00:11:32.350Z,4.47
2018-02-17T00:14:00.611Z,4.40
2018-02-17T00:16:28.899Z,4.23
2018-02-17T00:18:57.167Z,4.10
2018-02-17T00:21:25.440Z,3.90
2018-02-17T00:23:53.722Z,5.23
2018-02-17T00:26:22.022Z,4.63
2018-02-17T00:28:50.290Z,4.43
2018-02-17T00:31:18.599Z,5.20
2018-02-17T00:33:47.639Z,4.70
2018-02-17T00:36:15.913Z,4.23
2018-02-17T00:38:45.397Z,4.90
2018-02-17T00:41:13.734Z,5.37
2018-02-17T00:43:42.006Z,5.07
2018-02-17T00:46:11.047Z,3.80
2018-02-17T00:48:40.983Z,4.20
2018-02-17T00:51:09.278Z,5.00
2018-02-17T00:53:37.539Z,4.20
2018-02-17T00:56:05.812Z,4.30
2018-02-17T00:58:34.082Z,4.90
2018-02-17T01:01:02.363Z,4.37
2018-02-17T01:03:30.618Z,4.00
2018-02-17T01:05:59.642Z,3.60
2018-02-17T01:08:27.914Z,3.80
2018-02-17T01:10:56.202Z,3.90
2018-02-17T01:13:25.716Z,3.80
2018-02-17T01:15:53.969Z,3.60
2018-02-17T01:18:22.215Z,3.47
2018-02-17T01:20:51.259Z,3.80
2018-02-17T01:23:19.515Z,3.90
2018-02-17T01:25:47.786Z,3.77
2018-02-17T01:28:16.050Z,3.20
2018-02-17T01:30:45.080Z,3.40
2018-02-17T01:33:13.343Z,3.60
2018-02-17T01:35:41.609Z,4.57
2018-02-17T01:38:09.879Z,4.33
2018-02-17T01:40:38.940Z,4.40
2018-02-17T01:43:07.205Z,3.43
2018-02-17T01:45:35.480Z,4.55
2018-02-17T01:48:04.515Z,3.07
2018-02-17T01:50:33.563Z,4.00
2018-02-17T01:53:01.870Z,3.77
2018-02-17T01:55:30.119Z,4.00
2018-02-17T01:57:58.399Z,3.80
2018-02-17T02:00:26.679Z,4.27
2018-02-17T02:02:54.955Z,4.00
2018-02-17T02:05:23.215Z,3.60
2018-02-17T02:07:51.479Z,4.50
2018-02-17T02:10:19.753Z,3.83
2018-02-17T02:12:48.010Z,3.27
2018-02-17T02:15:16.283Z,3.90
2018-02-17T02:17:44.542Z,3.67
2018-02-17T02:20:13.574Z,4.50
2018-02-17T02:22:41.851Z,3.90
2018-02-17T02:25:10.115Z,4.90
2018-02-17T02:27:38.378Z,4.30
2018-02-17T02:30:07.406Z,5.00
2018-02-17T02:32:36.680Z,5.40
2018-02-17T02:35:04.943Z,4.57
2018-02-17T02:37:33.984Z,4.90
2018-02-17T02:40:03.036Z,4.40
2018-02-17T02:42:31.328Z,4.87
2018-02-17T02:44:59.611Z,4.50
2018-02-17T02:47:27.905Z,5.13
2018-02-17T02:49:56.179Z,3.73
2018-02-17T02:52:24.541Z,3.80
2018-02-17T02:54:52.797Z,4.03
2018-02-17T02:57:21.840Z,3.53
2018-02-17T02:59:50.110Z,4.57
2018-02-17T03:02:18.377Z,3.60
2018-02-17T03:04:46.667Z,3.50
2018-02-17T03:07:14.926Z,4.10
2018-02-17T03:09:43.183Z,3.53
2018-02-17T03:12:11.465Z,3.60
2018-02-17T03:14:39.725Z,4.10
2018-02-17T03:17:08.819Z,3.93
2018-02-17T03:19:37.838Z,4.50
2018-02-17T03:22:06.126Z,4.70
2018-02-17T03:24:34.430Z,4.23
2018-02-17T03:27:02.718Z,4.20
2018-02-17T03:29:30.988Z,4.30
2018-02-17T03:31:59.242Z,3.77
2018-02-17T03:34:27.511Z,3.87
2018-02-17T03:36:55.794Z,4.33
2018-02-17T03:39:24.063Z,4.00
2018-02-17T03:41:52.336Z,3.73
2018-02-17T03:44:20.595Z,3.30
2018-02-17T03:46:48.904Z,3.97
2018-02-17T03:49:17.160Z,3.90
2018-02-17T03:51:45.415Z,4.60
2018-02-17T03:54:13.899Z,4.17
2018-02-17T03:56:42.160Z,4.90
2018-02-17T03:59:10.439Z,4.33
2018-02-17T04:01:38.695Z,4.37
2018-02-17T04:04:07.729Z,4.43
2018-02-17T04:06:36.031Z,3.30
2018-02-17T04:09:04.287Z,3.73
2018-02-17T04:11:33.366Z,3.40
2018-02-17T04:14:01.630Z,3.70
2018-02-17T04:16:29.885Z,4.90
2018-02-17T04:18:58.919Z,5.07
2018-02-17T04:21:27.183Z,5.10
2018-02-17T04:23:55.455Z,5.30
2018-02-17T04:26:23.731Z,4.50
2018-02-17T04:28:51.994Z,4.70
2018-02-17T04:31:20.283Z,4.30
2018-02-17T04:33:48.564Z,3.87
2018-02-17T04:36:16.833Z,3.53
2018-02-17T04:38:45.090Z,3.23
2018-02-17T04:41:19.032Z,5.00
2018-02-17T04:43:59.038Z,5.30
2018-02-17T04:46:34.212Z,4.50
2018-02-17T04:49:05.512Z,4.00
2018-02-17T04:51:49.421Z,3.67
2018-02-17T04:54:23.138Z,4.00
2018-02-17T04:56:55.905Z,4.77
2018-02-17T05:02:51.560Z,4.83
2018-02-17T05:08:26.712Z,4.80
2018-02-17T05:10:54.968Z,4.53
2018-02-17T05:13:23.231Z,5.03
2018-02-17T05:16:05.376Z,4.43
2018-02-17T05:18:48.531Z,4.10
2018-02-17T05:21:18.721Z,5.33
2018-02-17T05:23:47.045Z,5.73
2018-02-17T05:26:15.642Z,5.37
2018-02-17T05:28:45.750Z,6.27
2018-02-17T05:31:15.958Z,6.20
2018-02-17T05:33:49.881Z,5.60
2018-02-17T05:36:20.579Z,5.80
2018-02-17T05:39:07.421Z,5.20
2018-02-17T05:41:50.562Z,5.40
2018-02-17T05:47:41.806Z,5.20
2018-02-17T05:50:10.075Z,5.13
2018-02-17T05:52:38.354Z,4.80
2018-02-17T05:55:06.619Z,4.30
2018-02-17T05:57:34.899Z,4.53
2018-02-17T06:00:03.174Z,4.80
2018-02-17T06:02:31.462Z,4.60
2018-02-17T06:04:59.779Z,4.47
2018-02-17T06:07:28.043Z,6.33
2018-02-17T06:09:57.067Z,4.40
2018-02-17T06:12:25.336Z,5.00
2018-02-17T06:14:53.589Z,4.60
2018-02-17T06:17:21.902Z,4.23
2018-02-17T06:19:50.151Z,5.10
2018-02-17T06:22:18.427Z,4.57
2018-02-17T06:24:46.683Z,5.13
2018-02-17T06:27:15.714Z,5.27
2018-02-17T06:29:43.991Z,5.00
2018-02-17T06:32:12.255Z,5.20
2018-02-17T06:34:40.530Z,5.20
2018-02-17T06:37:08.792Z,5.00
2018-02-17T06:39:37.815Z,4.40
2018-02-17T06:42:06.101Z,5.60
2018-02-17T06:44:34.355Z,7.25
2018-02-17T06:47:02.662Z,5.93
2018-02-17T06:49:30.922Z,7.40
2018-02-17T06:51:59.185Z,7.03
2018-02-17T06:54:27.461Z,7.53
2018-02-17T06:56:55.731Z,9.83
2018-02-17T06:59:24.912Z,8.20
2018-02-17T07:01:53.940Z,5.70
2018-02-17T07:04:22.207Z,4.40
2018-02-17T07:06:50.475Z,4.50
2018-02-17T07:09:18.741Z,5.17
2018-02-17T07:11:47.603Z,4.53
2018-02-17T07:14:15.868Z,6.87
2018-02-17T07:16:44.126Z,6.60
2018-02-17T07:19:12.407Z,6.23
2018-02-17T07:21:40.671Z,6.20
2018-02-17T07:24:08.950Z,4.97
2018-02-17T07:26:37.211Z,5.47
2018-02-17T07:29:05.504Z,5.25
2018-02-17T07:31:33.803Z,5.00
2018-02-17T07:34:02.066Z,5.10
2018-02-17T07:36:30.339Z,5.80
2018-02-17T07:38:58.604Z,5.47
2018-02-17T07:41:26.883Z,6.03
2018-02-17T07:43:55.945Z,6.03
2018-02-17T07:46:24.208Z,5.80
2018-02-17T07:48:52.515Z,5.90
2018-02-17T07:51:20.775Z,6.97
2018-02-17T07:53:49.059Z,5.47
2018-02-17T07:56:17.328Z,6.17
2018-02-17T07:58:45.592Z,5.43
2018-02-17T08:01:13.863Z,6.43
2018-02-17T08:03:42.128Z,6.10
2018-02-17T08:06:11.147Z,6.20
2018-02-17T08:08:39.428Z,5.60
2018-02-17T08:11:07.687Z,5.50
2018-02-17T08:13:35.975Z,5.17
2018-02-17T08:16:04.219Z,4.50
2018-02-17T08:18:33.244Z,5.00
2018-02-17T08:21:01.503Z,5.30
2018-02-17T08:23:29.824Z,4.70
2018-02-17T08:25:58.068Z,5.90
2018-02-17T08:28:26.892Z,5.40
2018-02-17T08:30:55.957Z,5.50
2018-02-17T08:33:24.216Z,5.10
2018-02-17T08:35:52.466Z,5.10
2018-02-17T08:38:21.492Z,5.60
2018-02-17T08:40:49.737Z,6.10
2018-02-17T08:43:18.755Z,5.80
2018-02-17T08:45:47.149Z,5.80
2018-02-17T08:48:15.421Z,8.10
2018-02-17T08:50:43.678Z,6.53
2018-02-17T08:53:11.966Z,6.60
2018-02-17T08:55:40.302Z,6.00
2018-02-17T08:58:08.566Z,5.63
2018-02-17T09:00:36.817Z,7.03
2018-02-17T09:03:05.087Z,6.00
2018-02-17T09:05:33.356Z,6.43
2018-02-17T09:08:01.590Z,5.17
2018-02-17T09:13:32.218Z,6.40
2018-02-17T09:16:00.490Z,7.43
2018-02-17T09:18:28.738Z,8.50
2018-02-17T09:20:56.995Z,6.60
2018-02-17T09:23:25.259Z,6.80
2018-02-17T09:25:54.303Z,6.33
2018-02-17T09:28:22.571Z,6.60
2018-02-17T09:30:50.815Z,7.63
2018-02-17T09:33:19.062Z,7.97
2018-02-17T09:35:47.328Z,7.93
2018-02-17T09:38:15.575Z,8.40
2018-02-17T09:40:43.855Z,7.50
2018-02-17T09:43:12.091Z,7.77
2018-02-17T09:45:40.343Z,7.60
2018-02-17T09:48:09.376Z,7.27
2018-02-17T09:50:37.631Z,7.70
2018-02-17T09:53:06.663Z,6.70
2018-02-17T09:55:34.951Z,6.23
2018-02-17T09:58:03.206Z,7.63
2018-02-17T10:00:31.496Z,6.70
2018-02-17T10:03:00.530Z,7.00
2018-02-17T10:05:29.582Z,7.30
2018-02-17T10:07:57.833Z,7.13
2018-02-17T10:10:26.147Z,7.83
2018-02-17T10:12:54.393Z,7.80
2018-02-17T10:15:22.675Z,8.57
2018-02-17T10:17:50.923Z,7.70
2018-02-17T10:20:19.175Z,6.53
2018-02-17T10:22:48.206Z,7.67
2018-02-17T10:25:16.531Z,8.15
2018-02-17T10:27:44.784Z,9.17
2018-02-17T10:30:13.037Z,7.93
2018-02-17T10:32:41.314Z,7.43
2018-02-17T10:35:09.578Z,7.63
2018-02-17T10:37:37.838Z,7.37
2018-02-17T10:40:06.856Z,7.70
2018-02-17T10:42:35.102Z,7.50
2018-02-17T10:45:04.147Z,6.25
2018-02-17T10:47:32.392Z,7.20
2018-02-17T10:50:00.659Z,7.50
2018-02-17T10:52:28.902Z,6.47
2018-02-17T10:54:57.154Z,7.20
2018-02-17T10:57:25.412Z,5.83
2018-02-17T10:59:53.675Z,7.80
2018-02-17T11:02:21.946Z,6.80
2018-02-17T11:04:50.216Z,7.80
2018-02-17T11:07:18.462Z,7.10
2018-02-17T11:09:46.710Z,7.30
2018-02-17T11:12:14.977Z,6.80
2018-02-17T11:14:43.220Z,7.07
2018-02-17T11:17:11.483Z,7.00
2018-02-17T11:19:40.509Z,6.73
2018-02-17T11:22:08.795Z,6.67
2018-02-17T11:24:37.071Z,6.53
2018-02-17T11:27:05.335Z,7.20
2018-02-17T11:29:33.601Z,6.33
2018-02-17T11:32:01.855Z,6.03
2018-02-17T11:34:30.884Z,6.90
2018-02-17T11:36:59.126Z,6.13
2018-02-17T11:39:28.144Z,6.57
2018-02-17T11:41:56.416Z,6.70
2018-02-17T11:44:24.675Z,7.20
2018-02-17T11:46:52.942Z,6.60
2018-02-17T11:49:21.961Z,6.70
2018-02-17T11:51:50.216Z,6.27
2018-02-17T11:54:18.471Z,7.00
2018-02-17T11:56:46.770Z,5.80
2018-02-17T11:59:15.787Z,6.30
2018-02-17T12:01:44.051Z,6.70
2018-02-17T12:04:12.317Z,6.50
2018-02-17T12:06:40.567Z,5.87
2018-02-17T12:09:09.593Z,6.37
2018-02-17T12:11:37.875Z,6.00
2018-02-17T12:14:06.119Z,5.40
2018-02-17T12:16:35.174Z,6.30
2018-02-17T12:19:03.422Z,5.90
2018-02-17T12:21:31.693Z,6.40
2018-02-17T12:23:59.940Z,6.77
2018-02-17T12:26:29.069Z,5.70
2018-02-17T12:28:57.319Z,5.67
2018-02-17T12:31:26.350Z,5.50
2018-02-17T12:33:54.592Z,5.20
2018-02-17T12:36:23.639Z,6.00
2018-02-17T12:38:51.911Z,6.50
2018-02-17T12:41:20.258Z,6.00
2018-02-17T12:43:48.508Z,5.60
2018-02-17T12:46:17.594Z,4.63
2018-02-17T12:48:46.679Z,5.30
2018-02-17T12:51:15.003Z,4.40
2018-02-17T12:53:43.259Z,5.57
2018-02-17T12:56:11.511Z,5.72
2018-02-17T12:58:39.790Z,5.50
2018-02-17T13:01:08.055Z,4.90
2018-02-17T13:03:36.303Z,6.27
2018-02-17T13:06:04.586Z,5.10
2018-02-17T13:08:32.839Z,6.00
2018-02-17T13:11:01.106Z,5.43
2018-02-17T13:13:29.432Z,5.53
2018-02-17T13:15:57.652Z,5.50
2018-02-17T13:18:25.923Z,5.70
2018-02-17T13:20:54.182Z,6.03
2018-02-17T13:23:24.034Z,5.87
2018-02-17T13:25:52.308Z,6.07
2018-02-17T13:28:28.464Z,4.63
2018-02-17T13:30:56.715Z,5.20
2018-02-17T13:33:25.856Z,4.70
2018-02-17T13:35:54.133Z,5.60
2018-02-17T13:38:22.379Z,4.33
2018-02-17T13:40:50.760Z,4.67
2018-02-17T13:43:19.045Z,5.30
2018-02-17T13:45:47.299Z,5.40
2018-02-17T13:48:15.693Z,4.63
2018-02-17T13:50:43.969Z,5.60
2018-02-17T13:53:12.288Z,5.57
2018-02-17T13:55:40.592Z,5.70
2018-02-17T13:58:09.804Z,5.10
2018-02-17T14:00:37.992Z,4.90
2018-02-17T14:03:06.254Z,4.70
2018-02-17T14:05:34.530Z,4.97
2018-02-17T14:08:02.782Z,5.10
2018-02-17T14:10:31.813Z,5.40
2018-02-17T14:13:00.140Z,6.10
2018-02-17T14:15:28.542Z,4.77
2018-02-17T14:17:57.807Z,5.80
2018-02-17T14:20:27.784Z,5.00
2018-02-17T14:22:56.143Z,5.73
2018-02-17T14:25:24.524Z,5.28
2018-02-17T14:27:52.857Z,5.50
2018-02-17T14:30:21.225Z,5.17
2018-02-17T14:32:49.656Z,6.27
2018-02-17T14:35:18.035Z,5.87
2018-02-17T14:37:47.560Z,5.10
2018-02-17T14:40:16.220Z,5.70
2018-02-17T14:42:44.632Z,6.03
2018-02-17T14:45:12.922Z,6.30
2018-02-17T14:47:41.235Z,6.97
2018-02-17T14:50:10.295Z,8.00
2018-02-17T14:52:38.586Z,7.27
2018-02-17T14:55:06.855Z,6.63
2018-02-17T14:57:35.123Z,7.73
2018-02-17T15:00:03.474Z,5.93
2018-02-17T15:02:31.776Z,6.60
2018-02-17T15:05:00.116Z,5.60
2018-02-17T15:07:28.399Z,6.20
2018-02-17T15:09:56.677Z,7.07
2018-02-17T15:12:24.957Z,7.23
2018-02-17T15:14:53.245Z,8.20
2018-02-17T15:17:21.511Z,7.30
2018-02-17T15:19:49.835Z,8.77
2018-02-17T15:22:18.186Z,7.40
2018-02-17T15:24:46.522Z,7.57
2018-02-17T15:27:14.849Z,8.10
2018-02-17T15:29:43.203Z,8.07
2018-02-17T15:32:11.576Z,8.00
2018-02-17T15:34:39.943Z,8.70
2018-02-17T15:37:08.256Z,7.90
2018-02-17T15:39:36.519Z,8.57
2018-02-17T15:42:04.807Z,8.30
2018-02-17T15:44:33.200Z,7.80
2018-02-17T15:47:01.479Z,7.10
2018-02-17T15:49:29.834Z,7.00
2018-02-17T15:51:58.198Z,8.50
2018-02-17T15:54:26.467Z,9.57
2018-02-17T15:56:54.937Z,8.57
2018-02-17T15:59:23.314Z,9.57
2018-02-17T16:01:52.337Z,8.37
2018-02-17T16:04:20.651Z,10.07
2018-02-17T16:06:49.732Z,9.97
2018-02-17T16:09:19.772Z,9.85
2018-02-17T16:11:48.186Z,9.40
2018-02-17T16:14:17.760Z,10.27
2018-02-17T16:16:47.106Z,10.37
2018-02-17T16:19:15.532Z,9.80
2018-02-17T16:21:44.591Z,9.33
2018-02-17T16:24:12.846Z,10.43
2018-02-17T16:26:41.246Z,9.93
2018-02-17T16:29:09.498Z,10.70
2018-02-17T16:31:37.774Z,10.30
2018-02-17T16:34:06.081Z,10.20
2018-02-17T16:36:35.233Z,10.80
2018-02-17T16:39:03.635Z,11.27
2018-02-17T16:41:31.927Z,9.50
2018-02-17T16:44:00.195Z,10.80
2018-02-17T16:46:28.528Z,13.88
2018-02-17T16:48:56.800Z,27.60
2018-02-17T16:51:25.944Z,23.83
2018-02-17T16:53:54.218Z,19.00
2018-02-17T16:56:22.626Z,14.75
2018-02-17T16:58:50.927Z,11.43
2018-02-17T17:01:21.078Z,12.00
2018-02-17T17:03:49.968Z,10.43
2018-02-17T17:06:18.551Z,10.97
2018-02-17T17:08:47.017Z,11.53
2018-02-17T17:11:15.851Z,11.77
2018-02-17T17:13:45.437Z,11.33
2018-02-17T17:16:13.989Z,12.50
2018-02-17T17:18:42.754Z,11.67
2018-02-17T17:21:11.351Z,12.83
2018-02-17T17:23:40.173Z,12.10
2018-02-17T17:26:09.171Z,12.02
2018-02-17T17:28:38.544Z,12.10
2018-02-17T17:31:07.249Z,12.30
2018-02-17T17:33:35.892Z,11.37
2018-02-17T17:36:04.330Z,12.90
2018-02-17T17:38:33.103Z,10.03
2018-02-17T17:41:01.591Z,11.97
2018-02-17T17:43:29.932Z,10.70
2018-02-17T17:45:58.818Z,10.60
2018-02-17T17:48:27.735Z,10.70
2018-02-17T17:50:56.632Z,11.23
2018-02-17T17:53:26.239Z,18.10
2018-02-17T17:55:56.185Z,14.90
2018-02-17T17:58:25.469Z,14.67
2018-02-17T18:00:56.253Z,13.67
2018-02-17T18:03:25.472Z,12.10
2018-02-17T18:05:55.363Z,11.17
2018-02-17T18:08:24.188Z,17.23
2018-02-17T18:10:54.573Z,11.33
2018-02-17T18:13:24.445Z,11.60
2018-02-17T18:15:54.331Z,11.10
2018-02-17T18:18:25.178Z,9.63
2018-02-17T18:20:54.966Z,10.98
2018-02-17T18:23:24.194Z,10.97
2018-02-17T18:25:54.113Z,10.40
2018-02-17T18:28:24.059Z,12.37
2018-02-17T18:30:54.082Z,10.40
2018-02-17T18:33:24.055Z,10.60
2018-02-17T18:35:53.466Z,10.33
2018-02-17T18:38:22.841Z,11.00
2018-02-17T18:40:52.996Z,11.80
2018-02-17T18:43:22.266Z,12.90
2018-02-17T18:45:52.396Z,12.40
2018-02-17T18:48:21.735Z,14.43
2018-02-17T18:50:51.159Z,11.07
2018-02-17T18:53:20.503Z,12.60
2018-02-17T18:55:49.785Z,11.60
2018-02-17T18:58:19.098Z,12.30
2018-02-17T19:00:48.378Z,11.40
2018-02-17T19:03:17.807Z,10.50
2018-02-17T19:05:48.122Z,11.13
2018-02-17T19:08:18.331Z,11.03
2018-02-17T19:10:47.670Z,10.20
2018-02-17T19:13:16.978Z,12.23
2018-02-17T19:15:46.965Z,11.00
2018-02-17T19:18:16.755Z,10.67
2018-02-17T19:20:47.349Z,10.40
2018-02-17T19:23:17.214Z,10.30
2018-02-17T19:25:47.460Z,11.77
2018-02-17T19:28:16.997Z,10.03
2018-02-17T19:30:47.858Z,10.07
2018-02-17T19:33:18.475Z,10.40
2018-02-17T19:35:49.228Z,8.80
2018-02-17T19:38:20.423Z,10.47
2018-02-17T19:40:50.436Z,9.73
2018-02-17T19:43:20.292Z,9.90
2018-02-17T19:45:50.446Z,11.03
2018-02-17T19:48:19.739Z,11.27
2018-02-17T19:50:50.478Z,10.57
2018-02-17T19:53:19.872Z,9.10
2018-02-17T19:55:50.819Z,9.40
2018-02-17T19:58:20.212Z,10.50
2018-02-17T20:00:51.058Z,11.12
2018-02-17T20:03:20.392Z,10.50
2018-02-17T20:05:49.677Z,10.80
2018-02-17T20:08:19.662Z,9.90
2018-02-17T20:10:50.365Z,11.03
2018-02-17T20:13:19.809Z,11.50
2018-02-17T20:15:49.915Z,12.27
2018-02-17T20:18:20.335Z,11.30
2018-02-17T20:20:50.393Z,11.33
2018-02-17T20:23:20.319Z,10.90
2018-02-17T20:25:50.299Z,10.43
2018-02-17T20:28:21.072Z,10.43
2018-02-17T20:30:51.924Z,10.30
2018-02-17T20:33:21.838Z,10.50
2018-02-17T20:35:52.467Z,10.70
2018-02-17T20:38:22.410Z,11.70
2018-02-17T20:40:53.197Z,13.13
2018-02-17T20:43:22.620Z,10.80
2018-02-17T20:45:52.213Z,11.30
2018-02-17T20:48:22.182Z,11.70
2018-02-17T20:50:52.919Z,11.07
2018-02-17T20:53:22.951Z,11.57
2018-02-17T20:55:52.717Z,12.90
2018-02-17T20:58:22.150Z,13.00
2018-02-17T21:00:52.474Z,11.60
2018-02-17T21:03:21.978Z,13.03
2018-02-17T21:05:53.201Z,12.97
2018-02-17T21:08:23.446Z,12.27
2018-02-17T21:10:53.523Z,12.23
2018-02-17T21:13:23.071Z,12.40
2018-02-17T21:15:53.930Z,14.82
2018-02-17T21:18:24.165Z,13.80
2018-02-17T21:20:54.238Z,14.48
2018-02-17T21:23:24.427Z,12.27
2018-02-17T21:25:54.279Z,14.63
2018-02-17T21:28:24.449Z,15.10
2018-02-17T21:30:53.750Z,15.10
2018-02-17T21:33:23.624Z,16.43
2018-02-17T21:35:52.893Z,16.60
2018-02-17T21:38:22.861Z,15.83
2018-02-17T21:40:52.864Z,15.00
2018-02-17T21:43:22.806Z,16.20
2018-02-17T21:45:52.264Z,14.50
2018-02-17T21:48:21.573Z,12.57
2018-02-17T21:50:51.459Z,13.33
2018-02-17T21:53:22.214Z,14.50
2018-02-17T21:55:52.875Z,16.25
2018-02-17T21:58:23.588Z,15.00
2018-02-17T22:00:53.770Z,17.37
2018-02-17T22:03:23.706Z,16.67
2018-02-17T22:05:54.771Z,14.80
2018-02-17T22:08:24.577Z,15.80
2018-02-17T22:10:54.597Z,16.40
2018-02-17T22:13:24.468Z,14.63
2018-02-17T22:15:54.446Z,13.77
2018-02-17T22:18:24.334Z,13.90
2018-02-17T22:20:55.033Z,13.20
2018-02-17T22:23:25.495Z,14.23
2018-02-17T22:25:55.555Z,13.60
2018-02-17T22:28:25.314Z,10.10
2018-02-17T22:30:56.007Z,11.30
2018-02-17T22:33:25.825Z,9.63
2018-02-17T22:35:55.722Z,10.30
2018-02-17T22:38:25.645Z,9.30
2018-02-17T22:40:55.510Z,9.60
2018-02-17T22:43:25.150Z,8.80
2018-02-17T22:45:55.126Z,11.30
2018-02-17T22:48:25.294Z,11.77
2018-02-17T22:50:54.684Z,11.03
2018-02-17T22:53:24.528Z,12.03
2018-02-17T22:55:54.489Z,12.80
2018-02-17T22:58:24.420Z,12.10
2018-02-17T23:00:53.788Z,13.13
2018-02-17T23:03:23.600Z,12.87
2018-02-17T23:05:52.789Z,12.10
2018-02-17T23:08:21.319Z,10.70
2018-02-17T23:10:49.696Z,10.00
2018-02-17T23:13:18.154Z,10.03
2018-02-17T23:15:46.415Z,10.40
2018-02-17T23:18:14.709Z,9.17
2018-02-17T23:20:42.971Z,11.47
2018-02-17T23:23:11.256Z,11.10
2018-02-17T23:25:39.538Z,11.40
2018-02-17T23:28:07.811Z,11.07
2018-02-17T23:30:36.172Z,11.63
2018-02-17T23:33:04.446Z,10.80
2018-02-17T23:35:32.808Z,13.63
2018-02-17T23:38:01.138Z,10.43
2018-02-17T23:40:29.407Z,10.48
2018-02-17T23:42:57.687Z,9.67
2018-02-17T23:45:26.042Z,10.47
2018-02-17T23:47:54.300Z,11.30
2018-02-17T23:50:22.559Z,10.63
2018-02-17T23:52:51.054Z,10.80
2018-02-17T23:55:19.338Z,11.10
2018-02-17T23:57:47.612Z,10.53
